sensor_id;sensor_type;location;lat;lon;timestamp;P1;durP1;ratioP1;P2;durP2;ratioP2
12921;SDS011;6528;48.086;16.282;2022-11-06T00:00:27;1.50;;;1.40;;
12921;SDS011;6528;48.086;16.282;2022-11-06T00:02:58;2.07;;;1.80;;
12921;SDS011;6528;48.086;16.282;2022-11-06T00:05:26;1.50;;;1.40;;
12921;SDS011;6528;48.086;16.282;2022-11-06T00:08:12;1.50;;;1.40;;
12921;SDS011;6528;48.086;16.282;2022-11-06T00:10:39;1.20;;;1.20;;
12921;SDS011;6528;48.086;16.282;2022-11-06T00:13:06;1.80;;;1.50;;
12921;SDS011;6528;48.086;16.282;2022-11-06T00:15:33;1.80;;;1.70;;
12921;SDS011;6528;48.086;16.282;2022-11-06T00:18:00;1.60;;;1.50;;
12921;SDS011;6528;48.086;16.282;2022-11-06T00:20:26;1.60;;;1.50;;
12921;SDS011;6528;48.086;16.282;2022-11-06T00:22:53;1.50;;;1.37;;
12921;SDS011;6528;48.086;16.282;2022-11-06T00:25:20;1.47;;;1.37;;
12921;SDS011;6528;48.086;16.282;2022-11-06T00:27:47;1.60;;;1.50;;
12921;SDS011;6528;48.086;16.282;2022-11-06T00:30:13;1.60;;;1.60;;
12921;SDS011;6528;48.086;16.282;2022-11-06T00:32:40;1.73;;;1.63;;
12921;SDS011;6528;48.086;16.282;2022-11-06T00:35:07;1.70;;;1.60;;
12921;SDS011;6528;48.086;16.282;2022-11-06T00:37:33;1.47;;;1.37;;
12921;SDS011;6528;48.086;16.282;2022-11-06T00:40:00;1.30;;;1.30;;
12921;SDS011;6528;48.086;16.282;2022-11-06T00:42:28;1.50;;;1.40;;
12921;SDS011;6528;48.086;16.282;2022-11-06T00:44:54;1.50;;;1.40;;
12921;SDS011;6528;48.086;16.282;2022-11-06T00:47:21;1.50;;;1.40;;
12921;SDS011;6528;48.086;16.282;2022-11-06T00:49:48;1.60;;;1.50;;
12921;SDS011;6528;48.086;16.282;2022-11-06T00:52:15;1.70;;;1.60;;
12921;SDS011;6528;48.086;16.282;2022-11-06T00:54:42;1.53;;;1.43;;
12921;SDS011;6528;48.086;16.282;2022-11-06T00:57:08;4.83;;;1.50;;
12921;SDS011;6528;48.086;16.282;2022-11-06T00:59:35;1.57;;;1.47;;
12921;SDS011;6528;48.086;16.282;2022-11-06T01:02:02;1.50;;;1.50;;
12921;SDS011;6528;48.086;16.282;2022-11-06T01:04:29;1.33;;;1.33;;
12921;SDS011;6528;48.086;16.282;2022-11-06T01:06:56;2.00;;;1.90;;
12921;SDS011;6528;48.086;16.282;2022-11-06T01:09:23;1.50;;;1.40;;
12921;SDS011;6528;48.086;16.282;2022-11-06T01:11:53;1.80;;;1.70;;
12921;SDS011;6528;48.086;16.282;2022-11-06T01:14:39;1.80;;;1.70;;
12921;SDS011;6528;48.086;16.282;2022-11-06T01:17:06;1.60;;;1.50;;
12921;SDS011;6528;48.086;16.282;2022-11-06T01:19:33;1.83;;;1.70;;
12921;SDS011;6528;48.086;16.282;2022-11-06T01:21:59;1.60;;;1.50;;
12921;SDS011;6528;48.086;16.282;2022-11-06T01:24:27;1.63;;;1.53;;
12921;SDS011;6528;48.086;16.282;2022-11-06T01:26:54;2.10;;;1.90;;
12921;SDS011;6528;48.086;16.282;2022-11-06T01:29:41;1.50;;;1.40;;
12921;SDS011;6528;48.086;16.282;2022-11-06T01:32:09;1.67;;;1.57;;
12921;SDS011;6528;48.086;16.282;2022-11-06T01:34:36;1.73;;;1.63;;
12921;SDS011;6528;48.086;16.282;2022-11-06T01:37:02;3.17;;;1.30;;
12921;SDS011;6528;48.086;16.282;2022-11-06T01:39:30;1.60;;;1.50;;
12921;SDS011;6528;48.086;16.282;2022-11-06T01:41:57;1.63;;;1.53;;
12921;SDS011;6528;48.086;16.282;2022-11-06T01:47:42;1.50;;;1.40;;
12921;SDS011;6528;48.086;16.282;2022-11-06T01:50:03;1.53;;;1.47;;
12921;SDS011;6528;48.086;16.282;2022-11-06T01:52:33;2.03;;;1.87;;
12921;SDS011;6528;48.086;16.282;2022-11-06T01:55:05;1.70;;;1.60;;
12921;SDS011;6528;48.086;16.282;2022-11-06T01:57:36;1.40;;;1.30;;
12921;SDS011;6528;48.086;16.282;2022-11-06T02:00:03;5.13;;;1.67;;
12921;SDS011;6528;48.086;16.282;2022-11-06T02:02:32;1.73;;;1.63;;
12921;SDS011;6528;48.086;16.282;2022-11-06T02:04:59;1.87;;;1.60;;
12921;SDS011;6528;48.086;16.282;2022-11-06T02:07:26;1.83;;;1.73;;
12921;SDS011;6528;48.086;16.282;2022-11-06T02:09:52;1.83;;;1.73;;
12921;SDS011;6528;48.086;16.282;2022-11-06T02:15:22;1.47;;;1.37;;
12921;SDS011;6528;48.086;16.282;2022-11-06T02:20:58;1.50;;;1.43;;
12921;SDS011;6528;48.086;16.282;2022-11-06T02:26:05;1.63;;;1.53;;
12921;SDS011;6528;48.086;16.282;2022-11-06T02:28:56;1.50;;;1.50;;
12921;SDS011;6528;48.086;16.282;2022-11-06T02:31:30;1.50;;;1.40;;
12921;SDS011;6528;48.086;16.282;2022-11-06T02:34:02;2.83;;;1.40;;
12921;SDS011;6528;48.086;16.282;2022-11-06T02:36:33;1.23;;;1.23;;
12921;SDS011;6528;48.086;16.282;2022-11-06T02:39:04;2.20;;;1.70;;
12921;SDS011;6528;48.086;16.282;2022-11-06T02:41:36;1.50;;;1.50;;
12921;SDS011;6528;48.086;16.282;2022-11-06T02:44:06;1.60;;;1.57;;
12921;SDS011;6528;48.086;16.282;2022-11-06T02:49:08;1.90;;;1.80;;
12921;SDS011;6528;48.086;16.282;2022-11-06T02:51:42;1.57;;;1.47;;
12921;SDS011;6528;48.086;16.282;2022-11-06T02:54:14;1.43;;;1.40;;
12921;SDS011;6528;48.086;16.282;2022-11-06T02:56:44;1.43;;;1.37;;
12921;SDS011;6528;48.086;16.282;2022-11-06T02:59:19;1.70;;;1.60;;
12921;SDS011;6528;48.086;16.282;2022-11-06T03:01:57;2.00;;;1.80;;
12921;SDS011;6528;48.086;16.282;2022-11-06T03:04:34;1.97;;;1.87;;
12921;SDS011;6528;48.086;16.282;2022-11-06T03:07:10;1.70;;;1.60;;
12921;SDS011;6528;48.086;16.282;2022-11-06T03:09:43;1.40;;;1.40;;
12921;SDS011;6528;48.086;16.282;2022-11-06T03:14:53;1.30;;;1.30;;
12921;SDS011;6528;48.086;16.282;2022-11-06T03:17:55;1.77;;;1.67;;
12921;SDS011;6528;48.086;16.282;2022-11-06T03:20:53;1.40;;;1.40;;
12921;SDS011;6528;48.086;16.282;2022-11-06T03:23:26;1.70;;;1.60;;
12921;SDS011;6528;48.086;16.282;2022-11-06T03:26:06;1.77;;;1.67;;
12921;SDS011;6528;48.086;16.282;2022-11-06T03:31:34;1.73;;;1.60;;
12921;SDS011;6528;48.086;16.282;2022-11-06T03:34:06;1.90;;;1.80;;
12921;SDS011;6528;48.086;16.282;2022-11-06T03:36:37;1.47;;;1.40;;
12921;SDS011;6528;48.086;16.282;2022-11-06T03:39:09;1.90;;;1.80;;
12921;SDS011;6528;48.086;16.282;2022-11-06T03:41:43;2.03;;;1.93;;
12921;SDS011;6528;48.086;16.282;2022-11-06T03:44:14;2.17;;;1.80;;
12921;SDS011;6528;48.086;16.282;2022-11-06T03:46:49;1.60;;;1.50;;
12921;SDS011;6528;48.086;16.282;2022-11-06T03:49:26;1.67;;;1.57;;
12921;SDS011;6528;48.086;16.282;2022-11-06T03:52:02;1.33;;;1.23;;
12921;SDS011;6528;48.086;16.282;2022-11-06T03:54:56;1.80;;;1.70;;
12921;SDS011;6528;48.086;16.282;2022-11-06T03:57:40;1.63;;;1.53;;
12921;SDS011;6528;48.086;16.282;2022-11-06T04:00:12;1.60;;;1.50;;
12921;SDS011;6528;48.086;16.282;2022-11-06T04:02:42;2.63;;;1.63;;
12921;SDS011;6528;48.086;16.282;2022-11-06T04:05:14;1.70;;;1.60;;
12921;SDS011;6528;48.086;16.282;2022-11-06T04:07:47;1.40;;;1.30;;
12921;SDS011;6528;48.086;16.282;2022-11-06T04:10:36;1.87;;;1.77;;
12921;SDS011;6528;48.086;16.282;2022-11-06T04:13:24;1.90;;;1.80;;
12921;SDS011;6528;48.086;16.282;2022-11-06T04:16:12;1.93;;;1.60;;
12921;SDS011;6528;48.086;16.282;2022-11-06T04:18:39;2.20;;;2.10;;
12921;SDS011;6528;48.086;16.282;2022-11-06T04:21:40;1.90;;;1.80;;
12921;SDS011;6528;48.086;16.282;2022-11-06T04:30:13;1.77;;;1.67;;
12921;SDS011;6528;48.086;16.282;2022-11-06T04:35:33;2.70;;;2.33;;
12921;SDS011;6528;48.086;16.282;2022-11-06T04:46:24;2.67;;;2.27;;
12921;SDS011;6528;48.086;16.282;2022-11-06T04:48:56;1.80;;;1.70;;
12921;SDS011;6528;48.086;16.282;2022-11-06T04:51:24;2.30;;;2.17;;
12921;SDS011;6528;48.086;16.282;2022-11-06T04:53:55;1.57;;;1.50;;
12921;SDS011;6528;48.086;16.282;2022-11-06T04:56:24;1.77;;;1.67;;
12921;SDS011;6528;48.086;16.282;2022-11-06T04:58:59;2.00;;;1.90;;
12921;SDS011;6528;48.086;16.282;2022-11-06T05:01:25;1.93;;;1.83;;
12921;SDS011;6528;48.086;16.282;2022-11-06T05:03:52;1.63;;;1.53;;
12921;SDS011;6528;48.086;16.282;2022-11-06T05:06:19;2.60;;;2.03;;
12921;SDS011;6528;48.086;16.282;2022-11-06T05:08:52;2.10;;;2.00;;
12921;SDS011;6528;48.086;16.282;2022-11-06T05:11:19;1.77;;;1.67;;
12921;SDS011;6528;48.086;16.282;2022-11-06T05:13:45;1.93;;;1.80;;
12921;SDS011;6528;48.086;16.282;2022-11-06T05:16:12;1.90;;;1.80;;
12921;SDS011;6528;48.086;16.282;2022-11-06T05:18:39;2.00;;;1.90;;
12921;SDS011;6528;48.086;16.282;2022-11-06T05:21:06;1.70;;;1.60;;
12921;SDS011;6528;48.086;16.282;2022-11-06T05:23:51;1.90;;;1.80;;
12921;SDS011;6528;48.086;16.282;2022-11-06T05:26:18;2.00;;;1.90;;
12921;SDS011;6528;48.086;16.282;2022-11-06T05:28:45;2.20;;;2.10;;
12921;SDS011;6528;48.086;16.282;2022-11-06T05:31:11;2.23;;;2.07;;
12921;SDS011;6528;48.086;16.282;2022-11-06T05:33:38;2.40;;;2.20;;
12921;SDS011;6528;48.086;16.282;2022-11-06T05:36:05;1.93;;;1.83;;
12921;SDS011;6528;48.086;16.282;2022-11-06T05:38:32;1.77;;;1.67;;
12921;SDS011;6528;48.086;16.282;2022-11-06T05:40:59;2.40;;;2.30;;
12921;SDS011;6528;48.086;16.282;2022-11-06T05:43:26;2.27;;;2.17;;
12921;SDS011;6528;48.086;16.282;2022-11-06T05:45:53;1.90;;;1.80;;
12921;SDS011;6528;48.086;16.282;2022-11-06T05:48:20;1.83;;;1.70;;
12921;SDS011;6528;48.086;16.282;2022-11-06T05:50:46;1.93;;;1.83;;
12921;SDS011;6528;48.086;16.282;2022-11-06T05:53:13;1.80;;;1.70;;
12921;SDS011;6528;48.086;16.282;2022-11-06T05:55:40;2.23;;;2.00;;
12921;SDS011;6528;48.086;16.282;2022-11-06T05:58:07;1.83;;;1.73;;
12921;SDS011;6528;48.086;16.282;2022-11-06T06:00:34;2.03;;;1.93;;
12921;SDS011;6528;48.086;16.282;2022-11-06T06:03:01;1.50;;;1.50;;
12921;SDS011;6528;48.086;16.282;2022-11-06T06:05:28;2.10;;;2.00;;
12921;SDS011;6528;48.086;16.282;2022-11-06T06:07:55;2.10;;;2.00;;
12921;SDS011;6528;48.086;16.282;2022-11-06T06:10:21;2.30;;;2.10;;
12921;SDS011;6528;48.086;16.282;2022-11-06T06:12:48;2.07;;;1.97;;
12921;SDS011;6528;48.086;16.282;2022-11-06T06:15:15;1.70;;;1.60;;
12921;SDS011;6528;48.086;16.282;2022-11-06T06:17:42;2.00;;;1.90;;
12921;SDS011;6528;48.086;16.282;2022-11-06T06:20:10;1.97;;;1.87;;
12921;SDS011;6528;48.086;16.282;2022-11-06T06:22:37;2.13;;;2.03;;
12921;SDS011;6528;48.086;16.282;2022-11-06T06:25:04;2.57;;;2.47;;
12921;SDS011;6528;48.086;16.282;2022-11-06T06:27:42;1.93;;;1.83;;
12921;SDS011;6528;48.086;16.282;2022-11-06T06:30:09;1.63;;;1.53;;
12921;SDS011;6528;48.086;16.282;2022-11-06T06:32:36;2.30;;;2.20;;
12921;SDS011;6528;48.086;16.282;2022-11-06T06:35:03;2.10;;;2.00;;
12921;SDS011;6528;48.086;16.282;2022-11-06T06:37:30;63.67;;;20.00;;
12921;SDS011;6528;48.086;16.282;2022-11-06T06:39:57;85.30;;;31.50;;
12921;SDS011;6528;48.086;16.282;2022-11-06T06:42:23;64.90;;;26.97;;
12921;SDS011;6528;48.086;16.282;2022-11-06T06:44:56;51.97;;;23.63;;
12921;SDS011;6528;48.086;16.282;2022-11-06T06:47:23;61.83;;;21.43;;
12921;SDS011;6528;48.086;16.282;2022-11-06T06:49:50;42.63;;;17.70;;
12921;SDS011;6528;48.086;16.282;2022-11-06T06:52:17;37.07;;;15.17;;
12921;SDS011;6528;48.086;16.282;2022-11-06T06:54:43;22.30;;;13.70;;
12921;SDS011;6528;48.086;16.282;2022-11-06T06:57:10;18.63;;;11.37;;
12921;SDS011;6528;48.086;16.282;2022-11-06T06:59:37;20.43;;;11.63;;
12921;SDS011;6528;48.086;16.282;2022-11-06T07:02:04;15.83;;;8.80;;
12921;SDS011;6528;48.086;16.282;2022-11-06T07:04:31;14.77;;;8.40;;
12921;SDS011;6528;48.086;16.282;2022-11-06T07:06:58;13.70;;;7.77;;
12921;SDS011;6528;48.086;16.282;2022-11-06T07:09:25;12.50;;;8.20;;
12921;SDS011;6528;48.086;16.282;2022-11-06T07:11:56;11.03;;;6.80;;
12921;SDS011;6528;48.086;16.282;2022-11-06T07:14:23;10.63;;;7.00;;
12921;SDS011;6528;48.086;16.282;2022-11-06T07:16:50;9.40;;;6.43;;
12921;SDS011;6528;48.086;16.282;2022-11-06T07:19:19;7.40;;;6.00;;
12921;SDS011;6528;48.086;16.282;2022-11-06T07:21:46;8.87;;;5.80;;
12921;SDS011;6528;48.086;16.282;2022-11-06T07:24:15;5.93;;;5.10;;
12921;SDS011;6528;48.086;16.282;2022-11-06T07:26:43;4.93;;;4.43;;
12921;SDS011;6528;48.086;16.282;2022-11-06T07:29:10;6.07;;;4.60;;
12921;SDS011;6528;48.086;16.282;2022-11-06T07:31:36;6.20;;;4.60;;
12921;SDS011;6528;48.086;16.282;2022-11-06T07:34:03;4.40;;;4.00;;
12921;SDS011;6528;48.086;16.282;2022-11-06T07:36:30;5.30;;;4.03;;
12921;SDS011;6528;48.086;16.282;2022-11-06T07:38:57;6.10;;;4.23;;
12921;SDS011;6528;48.086;16.282;2022-11-06T07:41:24;6.10;;;3.80;;
12921;SDS011;6528;48.086;16.282;2022-11-06T07:43:51;4.13;;;3.77;;
12921;SDS011;6528;48.086;16.282;2022-11-06T07:46:17;4.63;;;4.23;;
12921;SDS011;6528;48.086;16.282;2022-11-06T07:48:44;4.23;;;3.83;;
12921;SDS011;6528;48.086;16.282;2022-11-06T07:51:11;4.17;;;3.57;;
12921;SDS011;6528;48.086;16.282;2022-11-06T07:53:38;4.87;;;3.83;;
12921;SDS011;6528;48.086;16.282;2022-11-06T07:56:05;3.63;;;3.37;;
12921;SDS011;6528;48.086;16.282;2022-11-06T07:58:33;4.37;;;3.97;;
12921;SDS011;6528;48.086;16.282;2022-11-06T08:01:00;3.53;;;3.23;;
12921;SDS011;6528;48.086;16.282;2022-11-06T08:03:27;3.43;;;3.13;;
12921;SDS011;6528;48.086;16.282;2022-11-06T08:05:57;3.67;;;3.37;;
12921;SDS011;6528;48.086;16.282;2022-11-06T08:08:24;3.23;;;3.03;;
12921;SDS011;6528;48.086;16.282;2022-11-06T08:10:53;3.10;;;2.77;;
12921;SDS011;6528;48.086;16.282;2022-11-06T08:13:20;3.47;;;3.17;;
12921;SDS011;6528;48.086;16.282;2022-11-06T08:15:47;4.20;;;3.40;;
12921;SDS011;6528;48.086;16.282;2022-11-06T08:18:13;4.80;;;3.00;;
12921;SDS011;6528;48.086;16.282;2022-11-06T08:20:41;3.17;;;2.63;;
12921;SDS011;6528;48.086;16.282;2022-11-06T08:23:09;3.80;;;3.43;;
12921;SDS011;6528;48.086;16.282;2022-11-06T08:25:38;4.23;;;3.80;;
12921;SDS011;6528;48.086;16.282;2022-11-06T08:28:05;3.87;;;3.50;;
12921;SDS011;6528;48.086;16.282;2022-11-06T08:30:31;3.20;;;2.90;;
12921;SDS011;6528;48.086;16.282;2022-11-06T08:32:59;3.67;;;3.37;;
12921;SDS011;6528;48.086;16.282;2022-11-06T08:35:27;3.10;;;2.80;;
12921;SDS011;6528;48.086;16.282;2022-11-06T08:37:55;2.47;;;2.27;;
12921;SDS011;6528;48.086;16.282;2022-11-06T08:40:22;3.10;;;2.83;;
12921;SDS011;6528;48.086;16.282;2022-11-06T08:42:59;2.87;;;2.67;;
12921;SDS011;6528;48.086;16.282;2022-11-06T08:45:30;2.87;;;2.67;;
12921;SDS011;6528;48.086;16.282;2022-11-06T08:48:01;2.73;;;2.50;;
12921;SDS011;6528;48.086;16.282;2022-11-06T08:50:32;3.60;;;2.93;;
12921;SDS011;6528;48.086;16.282;2022-11-06T08:53:01;3.07;;;2.73;;
12921;SDS011;6528;48.086;16.282;2022-11-06T08:55:29;3.43;;;3.13;;
12921;SDS011;6528;48.086;16.282;2022-11-06T08:57:57;4.33;;;3.30;;
12921;SDS011;6528;48.086;16.282;2022-11-06T09:00:24;2.73;;;2.17;;
12921;SDS011;6528;48.086;16.282;2022-11-06T09:02:56;2.63;;;2.50;;
12921;SDS011;6528;48.086;16.282;2022-11-06T09:05:24;6.17;;;2.70;;
12921;SDS011;6528;48.086;16.282;2022-11-06T09:07:51;3.10;;;2.40;;
12921;SDS011;6528;48.086;16.282;2022-11-06T09:10:18;1.90;;;1.80;;
12921;SDS011;6528;48.086;16.282;2022-11-06T09:12:45;2.20;;;1.97;;
12921;SDS011;6528;48.086;16.282;2022-11-06T09:15:12;6.27;;;2.00;;
12921;SDS011;6528;48.086;16.282;2022-11-06T09:17:42;2.53;;;2.33;;
12921;SDS011;6528;48.086;16.282;2022-11-06T09:20:09;2.50;;;2.30;;
12921;SDS011;6528;48.086;16.282;2022-11-06T09:22:37;2.90;;;2.03;;
12921;SDS011;6528;48.086;16.282;2022-11-06T09:25:04;2.63;;;2.43;;
12921;SDS011;6528;48.086;16.282;2022-11-06T09:27:31;3.03;;;2.00;;
12921;SDS011;6528;48.086;16.282;2022-11-06T09:29:58;2.50;;;2.30;;
12921;SDS011;6528;48.086;16.282;2022-11-06T09:32:25;2.67;;;1.80;;
12921;SDS011;6528;48.086;16.282;2022-11-06T09:34:52;2.53;;;1.63;;
12921;SDS011;6528;48.086;16.282;2022-11-06T09:37:19;2.27;;;1.90;;
12921;SDS011;6528;48.086;16.282;2022-11-06T09:39:45;1.83;;;1.73;;
12921;SDS011;6528;48.086;16.282;2022-11-06T09:45:16;3.30;;;1.70;;
12921;SDS011;6528;48.086;16.282;2022-11-06T09:47:52;1.83;;;1.73;;
12921;SDS011;6528;48.086;16.282;2022-11-06T09:50:38;2.70;;;2.43;;
12921;SDS011;6528;48.086;16.282;2022-11-06T09:53:11;3.80;;;2.60;;
12921;SDS011;6528;48.086;16.282;2022-11-06T09:55:42;2.10;;;2.00;;
12921;SDS011;6528;48.086;16.282;2022-11-06T10:00:40;3.50;;;2.03;;
12921;SDS011;6528;48.086;16.282;2022-11-06T10:03:16;2.10;;;1.90;;
12921;SDS011;6528;48.086;16.282;2022-11-06T10:05:51;2.60;;;2.40;;
12921;SDS011;6528;48.086;16.282;2022-11-06T10:08:19;3.80;;;2.87;;
12921;SDS011;6528;48.086;16.282;2022-11-06T10:16:39;4.63;;;2.70;;
12921;SDS011;6528;48.086;16.282;2022-11-06T10:19:14;2.23;;;2.03;;
12921;SDS011;6528;48.086;16.282;2022-11-06T10:21:47;7.03;;;2.83;;
12921;SDS011;6528;48.086;16.282;2022-11-06T10:24:22;2.03;;;1.83;;
12921;SDS011;6528;48.086;16.282;2022-11-06T10:26:55;3.17;;;2.43;;
12921;SDS011;6528;48.086;16.282;2022-11-06T10:34:49;2.90;;;2.70;;
12921;SDS011;6528;48.086;16.282;2022-11-06T10:37:23;3.77;;;2.97;;
12921;SDS011;6528;48.086;16.282;2022-11-06T10:39:52;4.87;;;3.40;;
12921;SDS011;6528;48.086;16.282;2022-11-06T10:42:22;3.30;;;2.80;;
12921;SDS011;6528;48.086;16.282;2022-11-06T10:45:04;2.43;;;2.23;;
12921;SDS011;6528;48.086;16.282;2022-11-06T10:47:41;2.93;;;2.30;;
12921;SDS011;6528;48.086;16.282;2022-11-06T10:50:13;2.43;;;2.33;;
12921;SDS011;6528;48.086;16.282;2022-11-06T10:52:52;2.87;;;2.40;;
12921;SDS011;6528;48.086;16.282;2022-11-06T11:00:31;2.80;;;1.80;;
12921;SDS011;6528;48.086;16.282;2022-11-06T11:03:02;2.20;;;2.10;;
12921;SDS011;6528;48.086;16.282;2022-11-06T11:05:41;2.40;;;1.77;;
12921;SDS011;6528;48.086;16.282;2022-11-06T11:11:05;3.07;;;2.17;;
12921;SDS011;6528;48.086;16.282;2022-11-06T11:13:39;4.13;;;2.20;;
12921;SDS011;6528;48.086;16.282;2022-11-06T11:16:13;2.40;;;2.20;;
12921;SDS011;6528;48.086;16.282;2022-11-06T11:18:51;2.17;;;1.80;;
12921;SDS011;6528;48.086;16.282;2022-11-06T11:23:45;2.77;;;2.57;;
12921;SDS011;6528;48.086;16.282;2022-11-06T11:26:23;5.17;;;3.93;;
12921;SDS011;6528;48.086;16.282;2022-11-06T11:28:56;6.60;;;5.77;;
12921;SDS011;6528;48.086;16.282;2022-11-06T11:31:28;7.97;;;6.27;;
12921;SDS011;6528;48.086;16.282;2022-11-06T11:34:01;13.83;;;10.73;;
12921;SDS011;6528;48.086;16.282;2022-11-06T11:39:36;22.13;;;14.57;;
12921;SDS011;6528;48.086;16.282;2022-11-06T11:42:15;19.43;;;13.20;;
12921;SDS011;6528;48.086;16.282;2022-11-06T11:44:45;16.03;;;13.20;;
12921;SDS011;6528;48.086;16.282;2022-11-06T11:47:21;16.37;;;12.20;;
12921;SDS011;6528;48.086;16.282;2022-11-06T11:49:49;16.53;;;11.50;;
12921;SDS011;6528;48.086;16.282;2022-11-06T11:52:17;15.70;;;11.53;;
12921;SDS011;6528;48.086;16.282;2022-11-06T11:54:47;15.47;;;12.00;;
12921;SDS011;6528;48.086;16.282;2022-11-06T11:57:18;12.43;;;9.70;;
12921;SDS011;6528;48.086;16.282;2022-11-06T11:59:53;11.73;;;8.87;;
12921;SDS011;6528;48.086;16.282;2022-11-06T12:04:57;11.30;;;9.03;;
12921;SDS011;6528;48.086;16.282;2022-11-06T12:07:34;10.83;;;8.70;;
12921;SDS011;6528;48.086;16.282;2022-11-06T12:12:49;10.90;;;9.47;;
12921;SDS011;6528;48.086;16.282;2022-11-06T12:15:19;9.97;;;7.77;;
12921;SDS011;6528;48.086;16.282;2022-11-06T12:18:00;10.77;;;7.90;;
12921;SDS011;6528;48.086;16.282;2022-11-06T12:21:01;9.07;;;7.57;;
12921;SDS011;6528;48.086;16.282;2022-11-06T12:28:37;6.80;;;5.53;;
12921;SDS011;6528;48.086;16.282;2022-11-06T12:31:11;5.53;;;4.53;;
12921;SDS011;6528;48.086;16.282;2022-11-06T12:33:45;5.40;;;4.10;;
12921;SDS011;6528;48.086;16.282;2022-11-06T12:36:33;4.63;;;3.87;;
12921;SDS011;6528;48.086;16.282;2022-11-06T12:39:10;6.00;;;4.10;;
12921;SDS011;6528;48.086;16.282;2022-11-06T12:41:46;5.40;;;3.93;;
12921;SDS011;6528;48.086;16.282;2022-11-06T12:44:15;4.50;;;3.93;;
12921;SDS011;6528;48.086;16.282;2022-11-06T12:50:03;3.23;;;3.00;;
12921;SDS011;6528;48.086;16.282;2022-11-06T13:00:46;5.07;;;3.53;;
12921;SDS011;6528;48.086;16.282;2022-11-06T13:03:32;4.20;;;3.30;;
12921;SDS011;6528;48.086;16.282;2022-11-06T13:08:48;3.60;;;2.80;;
12921;SDS011;6528;48.086;16.282;2022-11-06T13:11:27;3.07;;;2.87;;
12921;SDS011;6528;48.086;16.282;2022-11-06T13:14:25;2.60;;;2.40;;
12921;SDS011;6528;48.086;16.282;2022-11-06T13:20:17;2.43;;;2.10;;
12921;SDS011;6528;48.086;16.282;2022-11-06T13:22:49;2.50;;;2.17;;
12921;SDS011;6528;48.086;16.282;2022-11-06T13:30:41;4.20;;;2.07;;
12921;SDS011;6528;48.086;16.282;2022-11-06T13:35:36;2.37;;;2.13;;
12921;SDS011;6528;48.086;16.282;2022-11-06T13:38:07;3.60;;;2.07;;
12921;SDS011;6528;48.086;16.282;2022-11-06T13:40:44;2.60;;;1.90;;
12921;SDS011;6528;48.086;16.282;2022-11-06T13:43:25;2.43;;;2.20;;
12921;SDS011;6528;48.086;16.282;2022-11-06T13:48:30;2.47;;;1.90;;
12921;SDS011;6528;48.086;16.282;2022-11-06T14:05:58;2.13;;;1.93;;
12921;SDS011;6528;48.086;16.282;2022-11-06T14:08:50;2.40;;;1.60;;
12921;SDS011;6528;48.086;16.282;2022-11-06T14:11:20;2.40;;;1.90;;
12921;SDS011;6528;48.086;16.282;2022-11-06T14:14:03;2.27;;;1.73;;
12921;SDS011;6528;48.086;16.282;2022-11-06T14:16:35;3.03;;;1.50;;
12921;SDS011;6528;48.086;16.282;2022-11-06T14:19:21;1.70;;;1.60;;
12921;SDS011;6528;48.086;16.282;2022-11-06T14:21:52;1.80;;;1.70;;
12921;SDS011;6528;48.086;16.282;2022-11-06T14:24:40;3.00;;;1.90;;
12921;SDS011;6528;48.086;16.282;2022-11-06T14:27:09;1.27;;;1.20;;
12921;SDS011;6528;48.086;16.282;2022-11-06T14:32:36;1.90;;;1.50;;
12921;SDS011;6528;48.086;16.282;2022-11-06T14:40:57;1.67;;;1.57;;
12921;SDS011;6528;48.086;16.282;2022-11-06T14:43:31;1.47;;;1.33;;
12921;SDS011;6528;48.086;16.282;2022-11-06T14:48:36;1.33;;;1.23;;
12921;SDS011;6528;48.086;16.282;2022-11-06T14:51:05;2.10;;;1.43;;
12921;SDS011;6528;48.086;16.282;2022-11-06T14:53:37;1.70;;;1.40;;
12921;SDS011;6528;48.086;16.282;2022-11-06T14:56:20;2.40;;;1.50;;
12921;SDS011;6528;48.086;16.282;2022-11-06T14:58:56;4.30;;;1.47;;
12921;SDS011;6528;48.086;16.282;2022-11-06T15:01:32;1.37;;;1.27;;
12921;SDS011;6528;48.086;16.282;2022-11-06T15:09:12;1.50;;;1.40;;
12921;SDS011;6528;48.086;16.282;2022-11-06T15:16:48;1.57;;;1.40;;
12921;SDS011;6528;48.086;16.282;2022-11-06T15:19:40;2.87;;;2.10;;
12921;SDS011;6528;48.086;16.282;2022-11-06T15:24:54;1.50;;;1.40;;
12921;SDS011;6528;48.086;16.282;2022-11-06T15:30:29;2.30;;;1.87;;
12921;SDS011;6528;48.086;16.282;2022-11-06T15:33:02;2.00;;;1.80;;
12921;SDS011;6528;48.086;16.282;2022-11-06T15:35:36;1.20;;;1.20;;
12921;SDS011;6528;48.086;16.282;2022-11-06T15:38:18;1.73;;;1.63;;
12921;SDS011;6528;48.086;16.282;2022-11-06T15:40:48;1.40;;;1.30;;
12921;SDS011;6528;48.086;16.282;2022-11-06T15:43:23;2.33;;;1.77;;
12921;SDS011;6528;48.086;16.282;2022-11-06T15:48:43;1.50;;;1.50;;
12921;SDS011;6528;48.086;16.282;2022-11-06T15:51:20;2.20;;;1.33;;
12921;SDS011;6528;48.086;16.282;2022-11-06T15:53:52;1.40;;;1.23;;
12921;SDS011;6528;48.086;16.282;2022-11-06T15:56:21;1.43;;;1.33;;
12921;SDS011;6528;48.086;16.282;2022-11-06T15:59:08;1.67;;;1.57;;
12921;SDS011;6528;48.086;16.282;2022-11-06T16:01:40;1.80;;;1.70;;
12921;SDS011;6528;48.086;16.282;2022-11-06T16:04:12;1.87;;;1.50;;
12921;SDS011;6528;48.086;16.282;2022-11-06T16:06:43;1.90;;;1.73;;
12921;SDS011;6528;48.086;16.282;2022-11-06T16:09:14;1.60;;;1.50;;
12921;SDS011;6528;48.086;16.282;2022-11-06T16:11:44;2.17;;;2.00;;
12921;SDS011;6528;48.086;16.282;2022-11-06T16:14:13;1.70;;;1.60;;
12921;SDS011;6528;48.086;16.282;2022-11-06T16:16:42;1.70;;;1.60;;
12921;SDS011;6528;48.086;16.282;2022-11-06T16:19:19;1.80;;;1.70;;
12921;SDS011;6528;48.086;16.282;2022-11-06T16:21:57;2.07;;;1.87;;
12921;SDS011;6528;48.086;16.282;2022-11-06T16:24:32;3.47;;;2.07;;
12921;SDS011;6528;48.086;16.282;2022-11-06T16:27:05;2.63;;;2.40;;
12921;SDS011;6528;48.086;16.282;2022-11-06T16:29:33;3.00;;;2.47;;
12921;SDS011;6528;48.086;16.282;2022-11-06T16:32:03;2.47;;;2.27;;
12921;SDS011;6528;48.086;16.282;2022-11-06T16:34:41;2.77;;;2.53;;
12921;SDS011;6528;48.086;16.282;2022-11-06T16:42:26;2.87;;;2.67;;
12921;SDS011;6528;48.086;16.282;2022-11-06T16:48:22;4.30;;;3.67;;
12921;SDS011;6528;48.086;16.282;2022-11-06T16:50:43;4.97;;;4.40;;
12921;SDS011;6528;48.086;16.282;2022-11-06T16:53:10;4.87;;;4.40;;
12921;SDS011;6528;48.086;16.282;2022-11-06T16:55:38;4.97;;;3.90;;
12921;SDS011;6528;48.086;16.282;2022-11-06T16:58:10;4.40;;;4.00;;
12921;SDS011;6528;48.086;16.282;2022-11-06T17:00:41;5.50;;;4.67;;
12921;SDS011;6528;48.086;16.282;2022-11-06T17:03:17;5.83;;;4.00;;
12921;SDS011;6528;48.086;16.282;2022-11-06T17:05:55;6.70;;;4.30;;
12921;SDS011;6528;48.086;16.282;2022-11-06T17:08:25;3.77;;;3.47;;
12921;SDS011;6528;48.086;16.282;2022-11-06T17:10:58;5.67;;;3.67;;
12921;SDS011;6528;48.086;16.282;2022-11-06T17:13:47;3.30;;;3.10;;
12921;SDS011;6528;48.086;16.282;2022-11-06T17:16:19;4.90;;;3.30;;
12921;SDS011;6528;48.086;16.282;2022-11-06T17:18:50;5.00;;;4.47;;
12921;SDS011;6528;48.086;16.282;2022-11-06T17:21:21;4.40;;;3.70;;
12921;SDS011;6528;48.086;16.282;2022-11-06T17:23:50;4.00;;;3.70;;
12921;SDS011;6528;48.086;16.282;2022-11-06T17:26:24;4.27;;;3.87;;
12921;SDS011;6528;48.086;16.282;2022-11-06T17:28:54;3.00;;;2.80;;
12921;SDS011;6528;48.086;16.282;2022-11-06T17:31:22;3.57;;;3.27;;
12921;SDS011;6528;48.086;16.282;2022-11-06T17:33:49;3.70;;;3.40;;
12921;SDS011;6528;48.086;16.282;2022-11-06T17:36:20;3.80;;;3.50;;
12921;SDS011;6528;48.086;16.282;2022-11-06T17:38:52;4.30;;;3.87;;
12921;SDS011;6528;48.086;16.282;2022-11-06T17:41:20;3.93;;;3.50;;
12921;SDS011;6528;48.086;16.282;2022-11-06T17:44:07;4.57;;;4.17;;
12921;SDS011;6528;48.086;16.282;2022-11-06T17:46:37;4.27;;;3.87;;
12921;SDS011;6528;48.086;16.282;2022-11-06T17:49:06;4.07;;;3.73;;